Time;durP1;ratioP1;P1;durP2;ratioP2;P2;SDS_P1;SDS_P2;PMS_P1;PMS_P2;Temp;Humidity;BMP_temperature;BMP_pressure;BME280_temperature;BME280_humidity;BME280_pressure;Samples;Min_cycle;Max_cycle;Signal;HPM_P1;HPM_P2
2021/06/30 00:01:44;;;;;;;1.20;1.20;;;14.50;99.90;;;;;;6284718;28;20024;-80
2021/06/30 00:04:44;;;;;;;1.95;1.23;;;14.50;99.90;;;;;;6301155;28;20083;-80
2021/06/30 00:07:45;;;;;;;0.95;0.95;;;14.60;99.90;;;;;;6319250;28;20032;-80
2021/06/30 00:10:46;;;;;;;1.13;0.70;;;14.50;99.90;;;;;;6284137;28;20020;-80
2021/06/30 00:13:46;;;;;;;0.80;0.80;;;14.50;99.90;;;;;;6284464;28;20511;-80
2021/06/30 00:16:48;;;;;;;0.90;0.90;;;;;;;;;;6319664;28;20369;-80
2021/06/30 00:19:48;;;;;;;1.08;1.08;;;14.80;99.90;;;;;;6300774;28;20028;-80
2021/06/30 00:22:49;;;;;;;0.77;0.77;;;14.60;99.90;;;;;;6284258;28;20036;-80
2021/06/30 00:25:50;;;;;;;1.55;1.00;;;14.70;99.90;;;;;;6300547;28;20052;-79
2021/06/30 00:28:50;;;;;;;1.15;1.05;;;14.60;99.90;;;;;;6267774;28;20355;-82
2021/06/30 00:31:51;;;;;;;0.80;0.80;;;14.80;99.90;;;;;;6283336;28;20060;-81
2021/06/30 00:34:51;;;;;;;1.05;0.93;;;14.70;99.90;;;;;;6300404;28;20473;-83
2021/06/30 00:37:52;;;;;;;0.88;0.88;;;14.50;99.90;;;;;;6300395;28;20024;-80
2021/06/30 00:40:52;;;;;;;0.70;0.70;;;14.60;99.90;;;;;;6300581;28;20043;-80
2021/06/30 00:43:53;;;;;;;1.00;1.00;;;14.60;99.90;;;;;;6284074;28;20036;-82
2021/06/30 00:46:54;;;;;;;0.90;0.85;;;14.60;99.90;;;;;;6300008;28;20082;-83
2021/06/30 00:49:54;;;;;;;1.23;1.20;;;14.60;99.90;;;;;;6283497;28;20582;-80
2021/06/30 00:52:55;;;;;;;3.42;1.35;;;14.40;99.90;;;;;;6283535;28;20024;-80
2021/06/30 00:55:55;;;;;;;1.70;1.60;;;14.50;99.90;;;;;;6283420;28;20024;-80
2021/06/30 00:58:57;;;;;;;1.05;1.05;;;14.50;99.90;;;;;;6283556;28;20043;-79
2021/06/30 01:01:58;;;;;;;1.73;1.63;;;14.70;99.90;;;;;;6283447;28;20028;-81
2021/06/30 01:04:59;;;;;;;1.00;1.00;;;14.00;99.90;;;;;;6283089;28;20040;-80
2021/06/30 01:07:59;;;;;;;1.50;1.20;;;14.50;99.90;;;;;;6266825;28;20030;-81
2021/06/30 01:11:00;;;;;;;1.08;1.08;;;14.50;99.90;;;;;;6299706;28;20059;-80
2021/06/30 01:14:01;;;;;;;1.33;1.05;;;;;;;;;;6266129;28;20024;-80
2021/06/30 01:17:04;;;;;;;1.88;1.40;;;14.60;99.90;;;;;;6299846;28;20024;-80
2021/06/30 01:20:05;;;;;;;1.17;0.88;;;14.60;99.90;;;;;;6283378;28;20077;-81
2021/06/30 01:23:09;;;;;;;1.52;1.45;;;14.50;99.90;;;;;;6317829;28;20472;-81
2021/06/30 01:26:10;;;;;;;1.52;1.38;;;;;;;;;;6282726;28;20048;-80
2021/06/30 01:29:11;;;;;;;1.17;1.17;;;14.40;99.90;;;;;;6299681;28;20028;-80
2021/06/30 01:32:12;;;;;;;1.45;1.25;;;;;;;;;;6283014;28;20035;-81
2021/06/30 01:35:20;;;;;;;1.45;1.35;;;14.70;99.90;;;;;;6317847;28;20024;-80
2021/06/30 01:38:22;;;;;;;2.63;1.17;;;14.50;99.90;;;;;;6265965;28;20517;-81
2021/06/30 01:41:23;;;;;;;1.20;1.20;;;14.40;99.90;;;;;;6282932;28;20035;-80
2021/06/30 01:44:23;;;;;;;1.42;1.40;;;14.50;99.90;;;;;;6318159;28;20043;-80
2021/06/30 01:47:24;;;;;;;1.50;1.40;;;14.50;99.90;;;;;;6287575;28;20028;-80
2021/06/30 01:50:25;;;;;;;1.27;1.20;;;;;;;;;;6287879;28;20024;-80
2021/06/30 01:53:26;;;;;;;1.92;1.83;;;;;;;;;;6322642;28;20130;-81
2021/06/30 01:56:27;;;;;;;3.28;1.30;;;14.40;99.90;;;;;;6304320;28;20031;-81
2021/06/30 01:59:28;;;;;;;1.60;1.50;;;14.50;99.90;;;;;;6271013;28;20023;-81
2021/06/30 02:02:30;;;;;;;1.20;1.10;;;14.50;99.90;;;;;;6287199;28;20039;-81
2021/06/30 02:05:31;;;;;;;1.60;1.50;;;14.60;99.90;;;;;;6287578;28;20031;-81
2021/06/30 02:08:35;;;;;;;1.90;1.60;;;14.60;99.90;;;;;;6304233;28;20051;-81
2021/06/30 02:11:36;;;;;;;6.53;1.35;;;14.40;99.90;;;;;;6287002;28;20420;-84
2021/06/30 02:14:36;;;;;;;3.95;1.70;;;14.30;99.90;;;;;;6287595;28;20119;-80
2021/06/30 02:17:37;;;;;;;3.95;1.60;;;14.70;99.90;;;;;;6321939;28;20081;-82
2021/06/30 02:20:37;;;;;;;1.42;1.33;;;14.50;99.90;;;;;;6322024;28;20024;-82
2021/06/30 02:23:38;;;;;;;1.50;1.40;;;14.40;99.90;;;;;;6303432;28;21030;-80
2021/06/30 02:26:39;;;;;;;1.50;1.40;;;14.50;99.90;;;;;;6270092;28;20075;-80
2021/06/30 02:29:39;;;;;;;1.52;1.52;;;14.50;99.90;;;;;;6303675;28;20028;-79
2021/06/30 02:32:40;;;;;;;1.45;1.45;;;14.50;99.90;;;;;;6287011;28;20036;-80
2021/06/30 02:35:41;;;;;;;1.80;1.42;;;14.50;99.90;;;;;;6286864;28;20032;-83
2021/06/30 02:38:42;;;;;;;1.70;1.30;;;14.40;99.90;;;;;;6321343;28;20020;-80
2021/06/30 02:41:42;;;;;;;1.73;1.63;;;14.50;99.90;;;;;;6322174;28;20427;-80
2021/06/30 02:44:43;;;;;;;1.50;1.40;;;14.50;99.90;;;;;;6286511;28;20113;-80
2021/06/30 02:47:44;;;;;;;1.70;1.60;;;13.50;99.90;;;;;;6302895;28;20433;-80
2021/06/30 02:50:45;;;;;;;1.58;1.48;;;14.30;99.90;;;;;;6286829;28;20028;-80
2021/06/30 02:53:46;;;;;;;1.42;1.33;;;14.50;99.90;;;;;;6302922;28;20763;-80
2021/06/30 02:56:47;;;;;;;1.27;1.27;;;;;;;;;;6302233;28;20036;-80
2021/06/30 02:59:48;;;;;;;1.40;1.30;;;;;;;;;;6303106;28;20020;-81
2021/06/30 03:02:49;;;;;;;1.55;1.45;;;14.00;99.90;;;;;;6285754;28;20028;-80
2021/06/30 03:05:49;;;;;;;1.33;1.20;;;14.10;99.90;;;;;;6269464;28;20119;-80
2021/06/30 03:08:50;;;;;;;1.02;1.02;;;14.20;99.90;;;;;;6285750;28;20053;-80
2021/06/30 03:11:51;;;;;;;1.83;1.35;;;;;;;;;;6285751;28;20031;-81
2021/06/30 03:14:52;;;;;;;2.40;1.85;;;14.20;99.90;;;;;;6302269;28;20458;-80
2021/06/30 03:17:52;;;;;;;1.58;1.23;;;14.20;99.90;;;;;;6285723;28;20035;-80
2021/06/30 03:20:53;;;;;;;1.55;1.45;;;14.30;99.90;;;;;;6320476;28;20028;-80
2021/06/30 03:23:54;;;;;;;1.48;1.38;;;14.50;99.90;;;;;;6285161;28;20051;-81
2021/06/30 03:26:54;;;;;;;1.67;1.38;;;14.40;99.90;;;;;;6301505;28;20044;-80
2021/06/30 03:29:55;;;;;;;1.20;1.20;;;14.10;99.90;;;;;;6285396;28;20059;-81
2021/06/30 03:32:56;;;;;;;1.50;1.45;;;;;;;;;;6285485;28;20043;-80
2021/06/30 03:35:56;;;;;;;1.50;1.40;;;14.20;99.90;;;;;;6285308;28;20038;-80
2021/06/30 03:38:57;;;;;;;2.00;1.25;;;;;;;;;;6302439;28;20461;-80
2021/06/30 03:41:58;;;;;;;1.50;1.40;;;;;;;;;;6301804;28;20032;-80
2021/06/30 03:44:59;;;;;;;1.40;1.40;;;14.10;99.90;;;;;;6319702;28;20363;-81
2021/06/30 03:48:00;;;;;;;1.48;1.38;;;14.10;99.90;;;;;;6301405;28;20032;-80
2021/06/30 03:51:00;;;;;;;2.58;2.10;;;14.20;99.90;;;;;;6320012;28;20554;-80
2021/06/30 03:54:01;;;;;;;2.35;1.45;;;14.10;99.90;;;;;;6301201;28;20615;-81
2021/06/30 03:57:02;;;;;;;2.08;1.60;;;14.20;99.90;;;;;;6284863;28;20418;-81
2021/06/30 04:00:06;;;;;;;2.05;1.30;;;14.20;99.90;;;;;;6301284;28;20071;-80
2021/06/30 04:03:07;;;;;;;1.60;1.20;;;14.20;99.90;;;;;;6301482;28;20063;-80
2021/06/30 04:06:08;;;;;;;1.40;1.30;;;;;;;;;;6285022;28;20073;-83
2021/06/30 04:09:08;;;;;;;1.15;1.15;;;14.20;99.90;;;;;;6318080;28;20058;-80
2021/06/30 04:12:09;;;;;;;1.52;1.42;;;14.50;99.90;;;;;;6300846;28;20024;-81
2021/06/30 04:15:10;;;;;;;2.58;1.67;;;;;;;;;;6267661;28;20028;-81
2021/06/30 04:18:11;;;;;;;1.98;1.48;;;14.20;99.90;;;;;;6319045;28;20020;-82
2021/06/30 04:21:12;;;;;;;1.73;1.60;;;;;;;;;;6284165;28;20508;-82
2021/06/30 04:24:13;;;;;;;1.15;1.15;;;14.20;99.90;;;;;;6318544;28;20083;-84
2021/06/30 04:27:13;;;;;;;1.65;1.55;;;14.60;99.90;;;;;;6300564;28;20507;-81
2021/06/30 04:30:14;;;;;;;1.08;1.08;;;14.10;99.90;;;;;;6267419;28;20040;-81
2021/06/30 04:33:14;;;;;;;2.70;1.55;;;14.30;99.90;;;;;;6266860;28;20500;-80
2021/06/30 04:36:15;;;;;;;1.60;1.50;;;14.30;99.90;;;;;;6283415;28;20055;-81
2021/06/30 04:39:16;;;;;;;1.40;1.33;;;14.30;99.90;;;;;;6267241;28;20028;-81
2021/06/30 04:42:18;;;;;;;1.10;1.10;;;14.50;99.90;;;;;;6283723;28;20465;-80
2021/06/30 04:45:19;;;;;;;1.25;1.25;;;14.40;99.90;;;;;;6300680;28;20526;-80
2021/06/30 04:48:20;;;;;;;1.90;1.48;;;14.50;99.90;;;;;;6299991;28;20061;-81
2021/06/30 04:51:23;;;;;;;2.38;1.17;;;14.60;99.90;;;;;;6266907;28;20020;-83
2021/06/30 04:54:24;;;;;;;2.03;1.55;;;14.60;99.90;;;;;;6300055;28;20035;-79
2021/06/30 04:57:25;;;;;;;3.97;1.80;;;;;;;;;;6300090;28;20032;-80
2021/06/30 05:00:25;;;;;;;6.13;2.50;;;15.20;99.90;;;;;;6300190;28;20094;-78
2021/06/30 05:03:27;;;;;;;1.38;1.27;;;14.90;99.90;;;;;;6283602;28;20176;-79
2021/06/30 05:06:28;;;;;;;9.75;1.92;;;15.10;99.90;;;;;;6266912;28;20031;-81
2021/06/30 05:09:41;;;;;;;1.63;1.40;;;15.50;99.90;;;;;;6283778;28;20123;-77
2021/06/30 05:12:41;;;;;;;1.15;1.10;;;15.50;99.90;;;;;;6318131;28;20063;-76
2021/06/30 05:15:42;;;;;;;1.33;1.33;;;15.40;99.90;;;;;;6299483;28;20024;-76
2021/06/30 05:18:43;;;;;;;1.92;1.50;;;15.40;99.90;;;;;;6317853;28;20592;-78
2021/06/30 05:21:43;;;;;;;1.30;1.30;;;15.80;99.90;;;;;;6282532;28;20020;-79
2021/06/30 05:24:44;;;;;;;3.88;1.20;;;15.40;99.90;;;;;;6282750;28;20052;-80
2021/06/30 05:27:45;;;;;;;17.20;3.22;;;15.20;99.90;;;;;;6283024;28;20024;-76
2021/06/30 05:30:45;;;;;;;6.15;2.65;;;15.40;99.90;;;;;;6299822;28;20028;-76
2021/06/30 05:33:46;;;;;;;6.80;2.30;;;16.20;99.90;;;;;;6299447;28;20034;-76
2021/06/30 05:36:49;;;;;;;15.52;2.40;;;16.50;99.90;;;;;;6299583;28;20147;-79
2021/06/30 05:39:50;;;;;;;5.13;2.03;;;16.30;99.90;;;;;;6300038;28;20032;-78
2021/06/30 05:42:51;;;;;;;1.35;1.25;;;16.30;99.90;;;;;;6299121;28;20032;-78
2021/06/30 05:45:51;;;;;;;1.00;1.00;;;16.30;99.90;;;;;;6299785;28;20032;-79
2021/06/30 05:48:52;;;;;;;1.15;1.10;;;;;;;;;;6282386;28;20050;-79
2021/06/30 05:51:53;;;;;;;1.10;0.98;;;;;;;;;;6299661;28;20025;-79
2021/06/30 05:54:54;;;;;;;1.65;1.40;;;;;;;;;;6317387;28;20024;-80
2021/06/30 05:57:55;;;;;;;1.50;1.40;;;15.90;99.90;;;;;;6299432;28;20039;-79
2021/06/30 06:00:56;;;;;;;1.20;1.20;;;15.70;99.90;;;;;;6298472;28;20035;-78
2021/06/30 06:03:56;;;;;;;1.27;1.23;;;15.70;99.90;;;;;;6282583;28;20058;-81
2021/06/30 06:06:57;;;;;;;1.08;1.08;;;15.60;99.90;;;;;;6282622;28;20036;-80
2021/06/30 06:09:58;;;;;;;1.20;1.20;;;15.50;99.90;;;;;;6281922;28;20382;-79
2021/06/30 06:12:59;;;;;;;1.07;1.07;;;15.40;99.90;;;;;;6282560;28;20147;-79
2021/06/30 06:16:00;;;;;;;1.55;1.13;;;15.40;99.90;;;;;;6282329;28;20024;-79
2021/06/30 06:19:00;;;;;;;1.65;1.05;;;15.50;99.90;;;;;;6297611;28;20066;-79
2021/06/30 06:22:02;;;;;;;1.15;1.10;;;15.60;99.90;;;;;;6281492;28;20093;-79
2021/06/30 06:25:04;;;;;;;1.02;1.00;;;15.50;99.90;;;;;;6281832;28;20048;-79
2021/06/30 06:28:05;;;;;;;1.13;1.02;;;15.60;99.90;;;;;;6281390;28;20043;-83
2021/06/30 06:31:10;;;;;;;1.30;1.20;;;15.70;99.90;;;;;;6283423;28;20120;-81
2021/06/30 06:34:12;;;;;;;0.98;0.98;;;15.70;99.90;;;;;;6303571;28;20121;-79
2021/06/30 06:37:14;;;;;;;1.05;1.05;;;15.90;99.90;;;;;;6301879;28;20028;-80
2021/06/30 06:40:15;;;;;;;2.15;1.23;;;16.00;99.90;;;;;;6269917;28;20036;-79
2021/06/30 06:43:16;;;;;;;1.15;1.08;;;16.30;99.90;;;;;;6286054;28;20035;-80
2021/06/30 06:46:16;;;;;;;1.98;1.38;;;16.80;99.90;;;;;;6321222;28;20112;-79
2021/06/30 06:49:17;;;;;;;1.05;1.05;;;16.80;99.90;;;;;;6269354;28;20036;-79
2021/06/30 06:52:18;;;;;;;0.85;0.85;;;16.70;99.90;;;;;;6269783;28;20028;-80
2021/06/30 06:55:18;;;;;;;1.05;1.05;;;17.00;99.90;;;;;;6268601;28;20038;-79
2021/06/30 06:58:19;;;;;;;1.90;1.00;;;16.70;99.90;;;;;;6285951;28;20027;-82
2021/06/30 07:01:23;;;;;;;2.38;1.80;;;17.10;99.90;;;;;;6268061;28;20028;-81
2021/06/30 07:04:24;;;;;;;1.30;1.30;;;16.70;99.90;;;;;;6269051;28;20047;-79
2021/06/30 07:07:24;;;;;;;1.63;1.05;;;16.50;99.90;;;;;;6319916;28;20039;-81
2021/06/30 07:10:25;;;;;;;1.73;1.48;;;16.60;99.90;;;;;;6287170;28;20736;-79
2021/06/30 07:13:26;;;;;;;1.73;1.30;;;;;;;;;;6319246;28;20020;-79
2021/06/30 07:16:27;;;;;;;2.55;1.40;;;;;;;;;;6319980;28;20032;-80
2021/06/30 07:19:28;;;;;;;1.42;1.33;;;16.50;99.90;;;;;;6302162;28;20948;-79
2021/06/30 07:22:31;;;;;;;1.42;1.33;;;16.30;99.90;;;;;;6302187;28;20036;-78
2021/06/30 07:25:31;;;;;;;1.20;1.20;;;16.20;99.90;;;;;;6285377;28;20397;-79
2021/06/30 07:28:32;;;;;;;2.80;1.63;;;16.00;99.90;;;;;;6301578;28;20111;-80
2021/06/30 07:31:33;;;;;;;1.58;1.48;;;15.90;99.90;;;;;;6301688;28;20024;-82
2021/06/30 07:34:33;;;;;;;1.52;1.42;;;15.90;99.90;;;;;;6319881;28;20054;-80
2021/06/30 07:37:34;;;;;;;2.15;1.45;;;15.80;99.90;;;;;;6300269;28;20135;-78
2021/06/30 07:40:35;;;;;;;1.00;1.00;;;15.60;99.90;;;;;;6283990;28;20035;-81
2021/06/30 07:43:36;;;;;;;2.42;1.30;;;;;;;;;;6284542;28;20470;-80
2021/06/30 07:46:36;;;;;;;1.35;1.35;;;15.70;99.90;;;;;;6319570;28;20020;-81
2021/06/30 07:49:37;;;;;;;1.50;1.40;;;16.10;99.90;;;;;;6284520;28;20054;-80
2021/06/30 07:52:38;;;;;;;2.25;1.30;;;15.10;99.90;;;;;;6283948;28;20032;-80
2021/06/30 07:55:39;;;;;;;3.42;1.42;;;16.00;99.90;;;;;;6282785;28;20036;-81
2021/06/30 07:58:40;;;;;;;1.38;1.25;;;;;;;;;;6317395;28;20028;-81
2021/06/30 08:01:41;;;;;;;1.45;1.35;;;15.50;99.90;;;;;;6283698;28;20020;-80
2021/06/30 08:04:42;;;;;;;1.70;1.60;;;15.60;99.90;;;;;;6300791;28;20393;-81
2021/06/30 08:07:43;;;;;;;1.90;1.80;;;15.60;99.90;;;;;;6284323;28;20047;-81
2021/06/30 08:10:43;;;;;;;3.28;1.40;;;15.90;99.90;;;;;;6284062;28;20020;-81
2021/06/30 08:13:44;;;;;;;1.85;1.58;;;15.90;99.90;;;;;;6284033;28;20497;-80
2021/06/30 08:16:45;;;;;;;1.25;1.25;;;16.10;99.90;;;;;;6283593;28;20412;-79
2021/06/30 08:19:45;;;;;;;1.85;1.70;;;16.20;99.90;;;;;;6300552;28;20036;-80
2021/06/30 08:22:46;;;;;;;1.65;1.30;;;16.60;99.90;;;;;;6283749;28;20406;-80
2021/06/30 08:25:47;;;;;;;1.85;1.55;;;16.40;99.90;;;;;;6300685;28;20058;-79
2021/06/30 08:28:48;;;;;;;2.00;1.80;;;18.00;99.90;;;;;;6318750;28;20146;-80
2021/06/30 08:31:48;;;;;;;3.78;1.90;;;16.60;99.90;;;;;;6283952;28;20385;-82
2021/06/30 08:34:49;;;;;;;2.13;1.50;;;16.60;99.90;;;;;;6300230;28;20031;-80
2021/06/30 08:37:54;;;;;;;1.70;1.45;;;16.80;99.90;;;;;;6300361;28;20024;-81
2021/06/30 08:40:55;;;;;;;1.88;1.60;;;17.10;99.90;;;;;;6318178;28;20141;-80
2021/06/30 08:43:57;;;;;;;2.43;1.70;;;17.10;99.90;;;;;;6299792;28;20036;-80
2021/06/30 08:46:57;;;;;;;1.90;1.47;;;17.20;99.90;;;;;;6318594;28;20127;-81
2021/06/30 08:49:58;;;;;;;1.95;1.77;;;17.10;99.90;;;;;;6317766;28;20077;-80
2021/06/30 08:52:59;;;;;;;1.83;1.70;;;17.30;99.90;;;;;;6283176;28;20041;-81
2021/06/30 08:55:59;;;;;;;1.90;1.80;;;17.60;99.90;;;;;;6282946;28;20032;-80
2021/06/30 08:59:00;;;;;;;4.55;1.88;;;17.70;99.90;;;;;;6283236;28;20458;-81
2021/06/30 09:02:01;;;;;;;1.70;1.60;;;18.00;99.90;;;;;;6283002;28;20110;-80
2021/06/30 09:08:41;;;;;;;1.70;1.60;;;18.30;99.90;;;;;;6317817;28;20031;-81
2021/06/30 09:11:43;;;;;;;1.85;1.60;;;18.70;99.90;;;;;;6302272;28;20461;-81
2021/06/30 09:14:43;;;;;;;1.50;1.40;;;18.70;99.90;;;;;;6265909;28;20036;-81
2021/06/30 09:17:46;;;;;;;2.22;1.67;;;18.60;99.90;;;;;;6317809;28;20405;-81
2021/06/30 09:20:47;;;;;;;5.95;1.58;;;17.90;99.90;;;;;;6317714;28;20038;-81
2021/06/30 09:24:07;;;;;;;2.17;1.50;;;18.10;99.90;;;;;;6317190;28;20051;-81
2021/06/30 09:27:09;;;;;;;2.35;2.03;;;17.90;99.90;;;;;;6298468;28;20502;-81
2021/06/30 09:30:11;;;;;;;1.52;1.42;;;18.00;99.90;;;;;;6282948;28;20074;-81
2021/06/30 09:33:12;;;;;;;1.58;1.27;;;17.90;99.90;;;;;;6266322;28;20076;-80
2021/06/30 09:36:13;;;;;;;1.63;1.42;;;18.20;99.90;;;;;;6299056;28;20039;-81
2021/06/30 09:39:14;;;;;;;2.30;1.30;;;;;;;;;;6266352;28;20404;-78
2021/06/30 09:42:15;;;;;;;2.45;1.60;;;18.50;99.90;;;;;;6299175;28;20074;-81
2021/06/30 09:45:20;;;;;;;3.08;1.83;;;18.30;99.90;;;;;;6282164;28;20122;-82
2021/06/30 09:48:34;;;;;;;1.58;1.48;;;18.50;99.90;;;;;;6299402;28;20078;-82
2021/06/30 09:51:35;;;;;;;1.40;1.30;;;18.70;99.90;;;;;;6263265;28;20028;-82
2021/06/30 09:54:41;;;;;;;1.77;1.55;;;18.60;99.90;;;;;;6278135;28;20466;-82
2021/06/30 09:57:42;;;;;;;2.58;1.90;;;;;;;;;;6277963;28;20374;-81
2021/06/30 10:00:43;;;;;;;1.95;1.50;;;;;;;;;;6315880;28;20043;-76
2021/06/30 10:03:44;;;;;;;1.60;1.48;;;18.60;99.90;;;;;;6315023;28;20036;-76
2021/06/30 10:06:44;;;;;;;1.73;1.60;;;18.50;99.90;;;;;;6280668;28;20097;-77
2021/06/30 10:09:48;;;;;;;1.98;1.85;;;18.60;99.90;;;;;;6321360;28;20103;-78
2021/06/30 10:12:48;;;;;;;1.80;1.70;;;18.70;99.90;;;;;;6321223;28;20111;-76
2021/06/30 10:15:49;;;;;;;2.00;1.48;;;18.80;99.90;;;;;;6320873;28;20445;-77
2021/06/30 10:18:51;;;;;;;1.38;1.33;;;19.00;99.90;;;;;;6303587;28;20107;-77
2021/06/30 10:21:51;;;;;;;1.73;1.50;;;19.10;99.90;;;;;;6321354;28;20027;-77
2021/06/30 10:24:53;;;;;;;2.58;1.50;;;19.30;99.40;;;;;;6286492;28;20056;-77
2021/06/30 10:27:53;;;;;;;1.83;1.73;;;19.30;99.80;;;;;;6303446;28;20106;-77
2021/06/30 10:30:54;;;;;;;1.75;1.60;;;19.40;99.80;;;;;;6303317;28;20038;-78
2021/06/30 10:34:08;;;;;;;2.97;1.90;;;19.00;99.90;;;;;;6269767;28;20172;-79
2021/06/30 10:37:19;;;;;;;1.70;1.60;;;18.60;99.90;;;;;;6303013;28;20035;-77
2021/06/30 10:40:20;;;;;;;2.00;1.60;;;18.10;99.90;;;;;;6320536;28;20042;-76
2021/06/30 10:43:20;;;;;;;1.65;1.52;;;18.00;99.90;;;;;;6320532;28;20397;-79
2021/06/30 10:46:25;;;;;;;2.22;1.60;;;17.90;99.90;;;;;;6320516;28;20032;-80
2021/06/30 10:49:28;;;;;;;3.22;2.00;;;17.70;99.90;;;;;;6302366;28;20024;-80
2021/06/30 10:52:28;;;;;;;4.35;1.98;;;17.90;99.90;;;;;;6302236;28;20036;-79
2021/06/30 10:55:32;;;;;;;1.90;1.80;;;18.20;99.90;;;;;;6301531;28;20111;-76
2021/06/30 10:58:33;;;;;;;2.00;1.88;;;;;;;;;;6318805;28;20026;-77
2021/06/30 11:01:34;;;;;;;1.75;1.65;;;;;;;;;;6298293;28;20020;-78
2021/06/30 11:04:35;;;;;;;1.70;1.60;;;18.20;99.90;;;;;;6302564;28;20490;-78
2021/06/30 11:07:35;;;;;;;2.03;1.83;;;18.40;99.90;;;;;;6284272;28;20035;-76
2021/06/30 11:10:39;;;;;;;3.55;2.33;;;18.40;99.90;;;;;;6301868;28;20028;-77
2021/06/30 11:14:07;;;;;;;2.42;2.15;;;18.70;99.90;;;;;;6320456;28;20020;-76
2021/06/30 11:17:08;;;;;;;2.20;2.00;;;19.00;98.70;;;;;;6301979;28;20429;-76
2021/06/30 11:20:09;;;;;;;2.13;1.33;;;19.00;99.90;;;;;;6285174;28;20024;-78
2021/06/30 11:23:22;;;;;;;1.90;1.75;;;19.20;99.90;;;;;;6320431;28;20040;-79
2021/06/30 11:26:36;;;;;;;1.73;1.63;;;19.20;98.50;;;;;;6269527;28;20044;-79
2021/06/30 11:29:46;;;;;;;2.00;1.80;;;20.70;99.10;;;;;;6320430;28;20120;-79
2021/06/30 11:32:47;;;;;;;2.40;1.80;;;19.50;96.20;;;;;;6301884;28;20440;-78
2021/06/30 11:35:48;;;;;;;1.83;1.67;;;19.80;99.00;;;;;;6283357;28;20107;-78
2021/06/30 11:38:49;;;;;;;1.83;1.73;;;19.70;98.80;;;;;;6267856;28;20024;-80
2021/06/30 11:41:51;;;;;;;1.75;1.65;;;19.80;98.30;;;;;;6319607;28;20059;-79
2021/06/30 11:44:52;;;;;;;2.13;1.77;;;19.60;99.90;;;;;;6284920;28;20059;-79
2021/06/30 11:47:54;;;;;;;5.00;1.85;;;19.60;98.20;;;;;;6302142;28;20024;-78
2021/06/30 11:51:42;;;;;;;3.85;1.70;;;19.40;98.30;;;;;;6283735;28;20024;-78
2021/06/30 11:54:43;;;;;;;2.50;2.00;;;19.00;99.90;;;;;;6199008;28;20045;-77
2021/06/30 11:58:00;;;;;;;4.38;1.80;;;19.10;98.80;;;;;;6184334;28;20428;-77
2021/06/30 12:01:01;;;;;;;2.00;1.90;;;19.10;99.60;;;;;;6200645;28;20034;-77
2021/06/30 12:04:28;;;;;;;2.55;2.00;;;19.20;99.70;;;;;;6200200;28;20069;-77
2021/06/30 12:07:42;;;;;;;2.58;1.80;;;19.40;97.80;;;;;;6216086;28;20032;-77
2021/06/30 12:10:45;;;;;;;4.50;2.60;;;19.20;99.90;;;;;;6199682;28;20042;-86
2021/06/30 12:14:02;;;;;;;2.22;1.92;;;19.30;98.40;;;;;;6179353;28;20022;-78
2021/06/30 12:17:04;;;;;;;1.88;1.77;;;19.00;99.20;;;;;;6198307;28;20026;-78
2021/06/30 12:20:06;;;;;;;3.45;1.95;;;19.20;98.90;;;;;;6199382;28;20029;-82
2021/06/30 12:23:07;;;;;;;1.75;1.65;;;19.40;98.10;;;;;;6199943;28;20565;-78
2021/06/30 12:26:07;;;;;;;2.45;1.85;;;19.50;97.80;;;;;;6199601;28;20056;-78
2021/06/30 12:29:17;;;;;;;2.10;1.90;;;19.90;99.90;;;;;;6199222;28;20164;-79
2021/06/30 12:32:18;;;;;;;1.70;1.60;;;19.90;97.50;;;;;;6286567;28;20032;-78
2021/06/30 12:35:23;;;;;;;2.03;1.88;;;20.00;96.60;;;;;;6300409;28;20523;-78
2021/06/30 12:38:31;;;;;;;1.88;1.77;;;19.90;97.10;;;;;;6300285;28;20032;-77
2021/06/30 12:41:32;;;;;;;1.75;1.60;;;19.70;97.30;;;;;;6301341;28;20035;-83
2021/06/30 12:44:55;;;;;;;2.03;1.80;;;19.30;97.90;;;;;;6283437;28;20039;-83
2021/06/30 12:47:59;;;;;;;4.07;1.77;;;18.90;96.70;;;;;;6318113;28;20032;-78
2021/06/30 12:51:14;;;;;;;3.33;1.90;;;18.70;98.70;;;;;;6283684;28;20024;-80
2021/06/30 12:54:15;;;;;;;1.88;1.63;;;18.60;99.80;;;;;;6280896;28;20126;-77
2021/06/30 12:57:15;;;;;;;3.72;1.80;;;18.40;99.20;;;;;;6316132;28;20032;-77
2021/06/30 13:00:19;;;;;;;2.22;1.98;;;18.50;99.50;;;;;;6298803;28;20139;-76
2021/06/30 13:03:20;;;;;;;2.15;1.95;;;18.70;98.40;;;;;;6283638;28;20028;-77
2021/06/30 13:06:22;;;;;;;2.00;1.85;;;18.90;98.70;;;;;;6316254;28;20050;-78
2021/06/30 13:09:26;;;;;;;;;;;19.00;98.40;;;;;;6299677;28;20035;-78
2021/06/30 13:12:26;;;;;;;1.90;1.80;;;18.90;97.00;;;;;;6299775;28;20029;-77
2021/06/30 13:15:27;;;;;;;1.90;1.80;;;18.50;99.20;;;;;;6300030;28;20062;-78
2021/06/30 13:18:27;;;;;;;4.65;2.08;;;18.40;99.30;;;;;;6317822;28;20063;-78
2021/06/30 13:21:30;;;;;;;2.97;2.17;;;18.30;99.50;;;;;;6299655;28;20035;-76
2021/06/30 13:27:57;;;;;;;1.92;1.83;;;18.20;99.90;;;;;;6299898;28;20036;-77
2021/06/30 13:34:24;;;;;;;3.58;1.90;;;17.90;99.90;;;;;;6301843;28;20572;-78
2021/06/30 13:37:25;;;;;;;1.95;1.77;;;17.80;99.90;;;;;;6317629;28;20025;-77
2021/06/30 13:40:27;;;;;;;3.92;2.80;;;17.60;99.90;;;;;;6319984;28;20377;-77
2021/06/30 13:43:28;;;;;;;3.85;2.25;;;;;;;;;;6322517;28;20125;-75
2021/06/30 13:46:28;;;;;;;3.85;2.55;;;16.80;99.90;;;;;;6287804;28;20024;-76
2021/06/30 13:49:29;;;;;;;2.42;2.22;;;;;;;;;;6322374;28;20063;-76
2021/06/30 13:52:32;;;;;;;2.10;1.90;;;;;;;;;;6322182;28;20028;-78
2021/06/30 13:55:33;;;;;;;4.53;2.25;;;15.90;99.90;;;;;;6322183;28;20023;-76
2021/06/30 13:58:34;;;;;;;2.20;2.00;;;16.10;99.90;;;;;;6322439;28;20028;-77
2021/06/30 14:01:35;;;;;;;4.55;2.90;;;16.00;99.90;;;;;;6303811;28;20032;-77
2021/06/30 14:04:36;;;;;;;3.13;2.50;;;16.00;99.90;;;;;;6321763;28;20047;-76
2021/06/30 14:07:36;;;;;;;2.58;2.38;;;16.10;99.90;;;;;;6321917;28;20032;-77
2021/06/30 14:10:37;;;;;;;2.30;2.08;;;16.10;99.90;;;;;;6287368;28;20500;-76
2021/06/30 14:13:39;;;;;;;2.80;2.42;;;16.20;99.90;;;;;;6321854;28;20077;-76
2021/06/30 14:16:39;;;;;;;2.30;2.10;;;16.20;99.90;;;;;;6321679;28;20032;-77
2021/06/30 14:19:40;;;;;;;3.25;2.42;;;16.20;99.90;;;;;;6321913;28;20064;-75
2021/06/30 14:22:43;;;;;;;2.70;2.30;;;16.40;99.90;;;;;;6303845;28;20036;-78
2021/06/30 14:25:44;;;;;;;2.88;2.08;;;16.50;99.90;;;;;;6286729;28;20498;-79
2021/06/30 14:28:44;;;;;;;3.55;2.10;;;16.60;99.90;;;;;;6321326;28;20028;-77
2021/06/30 14:31:45;;;;;;;5.63;3.10;;;16.70;99.90;;;;;;6321109;28;20032;-76
2021/06/30 14:34:46;;;;;;;4.05;2.60;;;17.20;99.90;;;;;;6303498;28;20054;-80
2021/06/30 14:37:46;;;;;;;6.88;3.70;;;17.00;99.90;;;;;;6286556;28;20620;-80
2021/06/30 14:40:47;;;;;;;4.78;2.83;;;17.10;99.90;;;;;;6303283;28;20032;-81
2021/06/30 14:43:48;;;;;;;4.35;2.67;;;17.10;99.90;;;;;;6302697;28;20361;-77
2021/06/30 14:46:48;;;;;;;2.50;2.30;;;17.10;99.90;;;;;;6320102;28;20031;-77
2021/06/30 14:49:49;;;;;;;2.05;1.85;;;17.10;99.90;;;;;;6320174;28;20074;-77
2021/06/30 14:52:50;;;;;;;2.40;2.20;;;17.00;99.90;;;;;;6300527;28;20089;-77
2021/06/30 14:55:50;;;;;;;2.13;1.88;;;17.00;99.90;;;;;;6301612;28;20099;-78
2021/06/30 14:58:51;;;;;;;5.15;2.70;;;17.10;99.90;;;;;;6301061;28;20492;-78
2021/06/30 15:01:52;;;;;;;5.20;2.70;;;17.00;99.90;;;;;;6302735;28;20051;-77
2021/06/30 15:04:53;;;;;;;3.93;1.83;;;17.00;99.90;;;;;;6302397;28;20079;-77
2021/06/30 15:07:54;;;;;;;1.85;1.75;;;16.90;99.90;;;;;;6302618;28;20020;-78
2021/06/30 15:10:54;;;;;;;1.70;1.60;;;16.80;99.90;;;;;;6285688;28;20457;-76
2021/06/30 15:13:57;;;;;;;1.70;1.60;;;16.70;99.90;;;;;;6320681;28;20028;-78
2021/06/30 15:16:58;;;;;;;1.27;1.17;;;16.50;99.90;;;;;;6302768;28;20028;-77
2021/06/30 15:19:58;;;;;;;1.25;1.20;;;16.40;99.90;;;;;;6320431;28;20089;-77
2021/06/30 15:22:59;;;;;;;1.25;1.02;;;16.30;99.90;;;;;;6319871;28;20114;-76
2021/06/30 15:25:59;;;;;;;3.35;2.33;;;16.30;99.90;;;;;;6319806;28;20050;-77
2021/06/30 15:29:00;;;;;;;3.58;2.72;;;16.30;99.90;;;;;;6320364;28;20134;-77
2021/06/30 15:32:01;;;;;;;3.55;2.13;;;16.30;99.90;;;;;;6319836;28;20571;-77
2021/06/30 15:35:02;;;;;;;3.90;2.90;;;16.40;99.90;;;;;;6301700;28;20028;-78
2021/06/30 15:38:02;;;;;;;2.88;2.38;;;16.50;99.90;;;;;;6301159;28;20032;-78
2021/06/30 15:41:03;;;;;;;2.25;1.70;;;16.50;99.90;;;;;;6319861;28;20031;-77
2021/06/30 15:44:04;;;;;;;2.05;1.85;;;16.30;99.90;;;;;;6319584;28;20047;-76
2021/06/30 15:47:04;;;;;;;1.40;1.30;;;16.30;99.90;;;;;;6319803;28;20103;-77
2021/06/30 15:50:06;;;;;;;1.52;1.42;;;16.40;99.90;;;;;;6319401;28;20035;-76
2021/06/30 15:53:06;;;;;;;1.13;1.13;;;16.60;99.90;;;;;;6301548;28;20039;-77
2021/06/30 15:56:07;;;;;;;1.63;1.52;;;16.40;99.90;;;;;;6319067;28;20393;-77
2021/06/30 15:59:28;;;;;;;1.08;1.00;;;16.40;99.90;;;;;;6266134;28;20033;-77
2021/06/30 16:02:30;;;;;;;0.82;0.82;;;16.40;99.90;;;;;;6298829;28;20097;-77
2021/06/30 16:05:31;;;;;;;;;;;16.30;99.90;;;;;;6300346;28;20044;-77
2021/06/30 16:08:32;;;;;;;1.08;1.08;;;16.30;99.90;;;;;;6300411;28;19908;-78
2021/06/30 16:11:35;;;;;;;1.38;1.27;;;16.20;99.90;;;;;;6283138;28;20062;-78